createdAt,value
2018-02-13T00:00:02.035Z,98.85
2018-02-13T00:01:02.058Z,98.85
2018-02-13T00:02:01.983Z,98.38
2018-02-13T00:03:02.253Z,98.47
2018-02-13T00:04:01.933Z,98.66
2018-02-13T00:05:01.907Z,98.76
2018-02-13T00:06:01.872Z,98.47
2018-02-13T00:07:01.897Z,98.85
2018-02-13T00:08:01.827Z,98.57
2018-02-13T00:09:02.099Z,98.57
2018-02-13T00:10:01.771Z,98.95
2018-02-13T00:11:01.820Z,99.04
2018-02-13T00:12:01.717Z,98.95
2018-02-13T00:13:01.740Z,99.33
2018-02-13T00:14:01.684Z,98.85
2018-02-13T00:15:02.094Z,98.95
2018-02-13T00:16:01.721Z,98.95
2018-02-13T00:17:01.699Z,98.95
2018-02-13T00:18:01.671Z,98.85
2018-02-13T00:19:01.750Z,98.95
2018-02-13T00:20:01.690Z,98.95
2018-02-13T00:21:01.896Z,98.85
2018-02-13T00:22:01.463Z,98.76
2018-02-13T00:23:01.503Z,98.95
2018-02-13T00:25:01.506Z,98.76
2018-02-13T00:26:01.425Z,98.28
2018-02-13T00:27:01.648Z,98.47
2018-02-13T00:28:01.478Z,99.33
2018-02-13T00:29:01.352Z,99.14
2018-02-13T00:30:01.249Z,99.14
2018-02-13T00:31:01.343Z,98.57
2018-02-13T00:32:01.197Z,98.76
2018-02-13T00:33:01.471Z,98.76
2018-02-13T00:34:01.217Z,99.04
2018-02-13T00:35:01.118Z,99.33
2018-02-13T00:36:01.089Z,99.33
2018-02-13T00:37:01.117Z,99.23
2018-02-13T00:38:01.044Z,98.85
2018-02-13T00:39:01.014Z,99.42
2018-02-13T00:40:01.283Z,98.66
2018-02-13T00:41:00.959Z,98.47
2018-02-13T00:42:00.930Z,98.47
2018-02-13T00:43:01.004Z,98.66
2018-02-13T00:44:00.878Z,98.66
2018-02-13T00:45:00.938Z,98.85
2018-02-13T00:46:00.827Z,98.76
2018-02-13T00:47:01.102Z,98.76
2018-02-13T00:48:00.775Z,99.33
2018-02-13T00:49:00.799Z,99.33
2018-02-13T00:50:00.721Z,99.33
2018-02-13T00:51:00.702Z,99.23
2018-02-13T00:52:00.666Z,99.04
2018-02-13T00:53:00.646Z,99.04
2018-02-13T00:54:00.917Z,99.04
2018-02-13T00:55:00.649Z,99.04
2018-02-13T00:56:00.568Z,99.23
2018-02-13T00:57:00.544Z,99.23
2018-02-13T00:58:00.514Z,99.33
2018-02-13T00:59:00.515Z,99.04
2018-02-13T01:00:00.465Z,99.04
2018-02-13T01:01:00.891Z,98.47
2018-02-13T01:02:00.404Z,98.57
2018-02-13T01:03:00.540Z,99.04
2018-02-13T01:04:00.426Z,98.47
2018-02-13T01:05:00.401Z,98.66
2018-02-13T01:06:00.298Z,98.85
2018-02-13T01:07:00.323Z,98.66
2018-02-13T01:08:00.551Z,98.66
2018-02-13T01:09:00.222Z,98.85
2018-02-13T01:10:00.191Z,98.66
2018-02-13T01:11:00.166Z,98.76
2018-02-13T01:12:00.230Z,98.71
2018-02-13T01:13:00.244Z,99.33
2018-02-13T01:14:00.090Z,99.18
2018-02-13T01:15:00.395Z,99.33
2018-02-13T01:16:00.036Z,99.33
2018-02-13T01:17:00.008Z,98.76
2018-02-13T01:18:00.118Z,99.14
2018-02-13T01:19:00.239Z,99.33
2018-02-13T01:20:00.078Z,99.52
2018-02-13T01:22:00.181Z,99.42
2018-02-13T01:22:59.857Z,99.42
2018-02-13T01:23:59.825Z,99.65
2018-02-13T01:24:59.849Z,99.80
2018-02-13T01:25:59.776Z,99.61
2018-02-13T01:26:59.744Z,99.65
2018-02-13T01:28:00.025Z,99.27
2018-02-13T01:28:59.776Z,99.27
2018-02-13T01:29:59.738Z,99.56
2018-02-13T01:30:59.767Z,99.65
2018-02-13T01:31:59.698Z,99.75
2018-02-13T01:32:59.699Z,99.27
2018-02-13T01:33:59.858Z,99.37
2018-02-13T01:34:59.530Z,99.37
2018-02-13T01:35:59.517Z,99.65
2018-02-13T01:36:59.535Z,99.75
2018-02-13T01:37:59.600Z,99.37
2018-02-13T01:38:59.542Z,99.56
2018-02-13T01:39:59.824Z,99.37
2018-02-13T01:40:59.375Z,99.37
2018-02-13T01:41:59.345Z,99.94
2018-02-13T01:42:59.381Z,99.27
2018-02-13T01:43:59.292Z,99.80
2018-02-13T01:44:59.378Z,99.80
2018-02-13T01:45:59.654Z,99.52
2018-02-13T01:46:59.226Z,99.27
2018-02-13T01:47:59.188Z,99.23
2018-02-13T01:48:59.216Z,99.33
2018-02-13T01:49:59.232Z,99.14
2018-02-13T01:50:59.183Z,98.85
2018-02-13T01:51:59.216Z,98.66
2018-02-13T01:52:59.427Z,98.85
2018-02-13T01:53:59.026Z,98.61
2018-02-13T01:54:59.049Z,98.66
2018-02-13T01:55:58.977Z,98.47
2018-02-13T01:56:58.949Z,98.80
2018-02-13T01:57:58.925Z,98.66
2018-02-13T01:58:58.942Z,98.57
2018-02-13T01:59:59.171Z,98.85
2018-02-13T02:00:58.898Z,98.95
2018-02-13T02:01:58.823Z,98.47
2018-02-13T02:02:58.787Z,98.43
2018-02-13T02:03:58.762Z,98.95
2018-02-13T02:06:59.032Z,98.71
2018-02-13T02:08:58.680Z,99.23
2018-02-13T02:09:58.605Z,98.85
2018-02-13T02:10:58.585Z,99.08
2018-02-13T02:11:58.549Z,98.85
2018-02-13T02:12:58.676Z,98.95
2018-02-13T02:13:58.814Z,98.85
2018-02-13T02:14:58.503Z,99.14
2018-02-13T02:15:58.443Z,99.23
2018-02-13T02:16:58.422Z,98.95
2018-02-13T02:17:58.389Z,98.85
2018-02-13T02:18:58.413Z,98.47
2018-02-13T02:19:58.344Z,98.47
2018-02-13T02:20:58.611Z,98.76
2018-02-13T02:21:58.286Z,98.47
2018-02-13T02:22:58.374Z,98.57
2018-02-13T02:23:58.323Z,98.38
2018-02-13T02:24:58.256Z,98.66
2018-02-13T02:25:58.416Z,98.66
2018-02-13T02:26:58.167Z,98.80
2018-02-13T02:28:58.407Z,98.61
2018-02-13T02:29:58.076Z,98.76
2018-02-13T02:30:58.112Z,98.52
2018-02-13T02:31:58.023Z,98.85
2018-02-13T02:32:57.995Z,98.66
2018-02-13T02:33:57.970Z,98.57
2018-02-13T02:34:57.952Z,98.66
2018-02-13T02:35:58.221Z,98.52
2018-02-13T02:36:57.946Z,98.33
2018-02-13T02:37:57.867Z,98.85
2018-02-13T02:38:57.835Z,98.66
2018-02-13T02:39:57.879Z,98.95
2018-02-13T02:40:57.939Z,98.66
2018-02-13T02:41:58.050Z,98.61
2018-02-13T02:42:57.805Z,98.47
2018-02-13T02:43:57.785Z,98.76
2018-02-13T02:44:57.675Z,98.38
2018-02-13T02:45:57.644Z,98.57
2018-02-13T02:46:57.619Z,98.47
2018-02-13T02:47:57.903Z,98.47
2018-02-13T02:48:57.691Z,98.76
2018-02-13T02:49:57.614Z,98.61
2018-02-13T02:50:57.587Z,98.43
2018-02-13T02:51:57.559Z,98.61
2018-02-13T02:52:57.460Z,98.33
2018-02-13T02:53:57.732Z,98.80
2018-02-13T02:54:57.456Z,98.71
2018-02-13T02:55:57.379Z,98.71
2018-02-13T02:56:57.354Z,98.80
2018-02-13T02:57:57.331Z,98.52
2018-02-13T02:58:57.312Z,98.80
2018-02-13T02:59:57.598Z,98.80
2018-02-13T03:00:57.307Z,98.99
2018-02-13T03:01:57.223Z,98.99
2018-02-13T03:02:57.196Z,99.27
2018-02-13T03:03:57.299Z,99.08
2018-02-13T03:04:57.256Z,98.80
2018-02-13T03:05:57.523Z,98.61
2018-02-13T03:06:57.206Z,98.99
2018-02-13T03:07:57.111Z,99.18
2018-02-13T03:08:57.035Z,98.71
2018-02-13T03:09:57.013Z,98.80
2018-02-13T03:10:57.060Z,98.43
2018-02-13T03:11:57.255Z,98.80
2018-02-13T03:12:57.005Z,98.61
2018-02-13T03:13:56.899Z,99.08
2018-02-13T03:14:56.953Z,98.52
2018-02-13T03:15:57.002Z,99.27
2018-02-13T03:16:56.821Z,98.99
2018-02-13T03:17:57.095Z,98.71
2018-02-13T03:18:56.824Z,98.61
2018-02-13T03:19:56.744Z,98.71
2018-02-13T03:20:56.716Z,98.61
2018-02-13T03:21:56.701Z,98.61
2018-02-13T03:22:56.672Z,99.18
2018-02-13T03:23:56.722Z,98.52
2018-02-13T03:24:56.993Z,99.18
2018-02-13T03:25:56.584Z,99.08
2018-02-13T03:26:56.628Z,98.99
2018-02-13T03:27:56.614Z,99.27
2018-02-13T03:28:56.508Z,99.27
2018-02-13T03:29:56.548Z,98.99
2018-02-13T03:30:56.576Z,99.37
2018-02-13T03:31:56.759Z,98.71
2018-02-13T03:32:56.393Z,98.71
2018-02-13T03:33:56.370Z,98.80
2018-02-13T03:34:56.345Z,98.80
2018-02-13T03:35:56.320Z,98.52
2018-02-13T03:36:56.341Z,98.90
2018-02-13T03:37:56.261Z,98.99
2018-02-13T03:38:56.533Z,99.08
2018-02-13T03:39:56.208Z,98.61
2018-02-13T03:40:56.180Z,98.90
2018-02-13T03:41:56.153Z,98.43
2018-02-13T03:42:56.176Z,98.71
2018-02-13T03:43:56.107Z,98.61
2018-02-13T03:44:56.074Z,98.33
2018-02-13T03:45:56.346Z,98.33
2018-02-13T03:46:56.025Z,98.90
2018-02-13T03:47:56.015Z,98.76
2018-02-13T03:48:56.072Z,98.61
2018-02-13T03:49:55.939Z,98.43
2018-02-13T03:50:55.931Z,98.99
2018-02-13T03:51:55.888Z,98.80
2018-02-13T03:52:56.161Z,98.80
2018-02-13T03:53:55.834Z,98.80
2018-02-13T03:54:55.885Z,99.08
2018-02-13T03:55:55.781Z,98.80
2018-02-13T03:56:55.752Z,98.90
2018-02-13T03:57:55.730Z,98.90
2018-02-13T03:58:55.700Z,99.14
2018-02-13T03:59:55.974Z,98.43
2018-02-13T04:00:55.781Z,98.61
2018-02-13T04:01:55.620Z,98.61
2018-02-13T04:02:55.668Z,99.18
2018-02-13T04:03:55.666Z,99.27
2018-02-13T04:04:55.615Z,98.80
2018-02-13T04:05:55.841Z,98.80
2018-02-13T04:06:55.611Z,98.99
2018-02-13T04:07:55.585Z,98.71
2018-02-13T04:08:55.511Z,99.18
2018-02-13T04:09:55.600Z,98.80
2018-02-13T04:10:55.586Z,98.71
2018-02-13T04:11:55.655Z,99.08
2018-02-13T04:12:55.379Z,98.90
2018-02-13T04:13:55.296Z,98.80
2018-02-13T04:14:55.346Z,99.08
2018-02-13T04:15:55.244Z,98.71
2018-02-13T04:16:55.221Z,98.71
2018-02-13T04:17:55.494Z,99.18
2018-02-13T04:18:55.220Z,99.27
2018-02-13T04:19:55.247Z,99.46
2018-02-13T04:20:55.219Z,99.75
2018-02-13T04:21:55.093Z,99.08
2018-02-13T04:22:55.155Z,99.27
2018-02-13T04:23:55.335Z,99.27
2018-02-13T04:24:55.056Z,98.99
2018-02-13T04:25:55.096Z,98.99
2018-02-13T04:26:55.057Z,99.18
2018-02-13T04:27:55.029Z,99.08
2018-02-13T04:28:55.002Z,99.08
2018-02-13T04:29:55.367Z,98.99
2018-02-13T04:30:55.030Z,99.27
2018-02-13T04:31:54.922Z,99.18
2018-02-13T04:32:54.791Z,99.18
2018-02-13T04:33:54.772Z,99.56
2018-02-13T04:34:54.736Z,99.65
2018-02-13T04:35:55.009Z,99.18
2018-02-13T04:36:54.734Z,99.37
2018-02-13T04:37:54.659Z,99.56
2018-02-13T04:38:54.641Z,99.37
2018-02-13T04:39:54.741Z,99.27
2018-02-13T04:40:54.580Z,99.75
2018-02-13T04:41:54.550Z,99.18
2018-02-13T04:42:54.873Z,99.18
2018-02-13T04:43:54.508Z,98.99
2018-02-13T04:44:54.469Z,99.18
2018-02-13T04:45:54.440Z,99.46
2018-02-13T04:46:54.415Z,99.75
2018-02-13T04:47:54.398Z,99.56
2018-02-13T04:48:54.662Z,99.75
2018-02-13T04:49:54.643Z,99.46
2018-02-13T04:50:54.307Z,99.56
2018-02-13T04:51:54.283Z,99.18
2018-02-13T04:52:54.251Z,99.46
2018-02-13T04:53:54.228Z,99.18
2018-02-13T04:54:54.250Z,98.90
2018-02-13T04:55:54.172Z,99.08
2018-02-13T04:56:54.448Z,99.37
2018-02-13T04:57:54.119Z,99.56
2018-02-13T04:58:54.103Z,99.08
2018-02-13T04:59:54.065Z,99.27
2018-02-13T05:00:54.099Z,99.18
2018-02-13T05:01:54.010Z,99.08
2018-02-13T05:02:54.098Z,98.61
2018-02-13T05:03:54.674Z,98.61
2018-02-13T05:04:54.052Z,98.99
2018-02-13T05:05:54.014Z,98.61
2018-02-13T05:06:54.000Z,98.52
2018-02-13T05:07:54.024Z,98.99
2018-02-13T05:08:53.943Z,98.43
2018-02-13T05:09:53.900Z,98.61
2018-02-13T05:10:54.181Z,98.61
2018-02-13T05:11:53.851Z,99.18
2018-02-13T05:12:53.833Z,98.99
2018-02-13T05:13:53.797Z,98.61
2018-02-13T05:14:53.801Z,98.90
2018-02-13T05:15:53.636Z,99.37
2018-02-13T05:16:53.612Z,98.61
2018-02-13T05:17:54.014Z,98.71
2018-02-13T05:18:53.723Z,98.71
2018-02-13T05:19:53.658Z,99.18
2018-02-13T05:20:53.500Z,98.99
2018-02-13T05:21:53.474Z,98.80
2018-02-13T05:22:53.547Z,98.61
2018-02-13T05:23:53.420Z,98.52
2018-02-13T05:24:53.746Z,98.52
2018-02-13T05:25:53.363Z,98.80
2018-02-13T05:26:53.344Z,98.80
2018-02-13T05:27:53.312Z,98.52
2018-02-13T05:28:53.298Z,98.71
2018-02-13T05:29:53.351Z,98.52
2018-02-13T05:30:53.320Z,98.61
2018-02-13T05:31:53.217Z,98.71
2018-02-13T05:33:53.263Z,98.24
2018-02-13T05:34:53.237Z,98.61
2018-02-13T05:35:53.208Z,98.61
2018-02-13T05:36:53.528Z,98.61
2018-02-13T05:37:53.164Z,98.61
2018-02-13T05:38:53.122Z,98.52
2018-02-13T05:39:53.103Z,98.80
2018-02-13T05:40:52.972Z,97.96
2018-02-13T05:41:52.938Z,97.96
2018-02-13T05:42:53.258Z,97.96
2018-02-13T05:43:52.882Z,97.77
2018-02-13T05:44:52.860Z,98.14
2018-02-13T05:45:52.828Z,97.96
2018-02-13T05:46:52.809Z,97.96
2018-02-13T05:47:52.781Z,97.86
2018-02-13T05:48:53.125Z,97.77
2018-02-13T05:49:52.800Z,97.86
2018-02-13T05:50:52.817Z,97.77
2018-02-13T05:51:52.674Z,98.33
2018-02-13T05:52:52.650Z,98.14
2018-02-13T05:53:52.618Z,97.96
2018-02-13T05:54:52.935Z,97.86
2018-02-13T05:55:52.571Z,97.86
2018-02-13T05:56:52.536Z,97.96
2018-02-13T05:57:52.509Z,98.14
2018-02-13T05:58:52.485Z,97.67
2018-02-13T05:59:52.460Z,97.77
2018-02-13T06:00:53.454Z,98.33
2018-02-13T06:01:52.414Z,97.77
2018-02-13T06:03:52.444Z,97.77
2018-02-13T06:04:52.450Z,97.96
2018-02-13T06:05:52.394Z,97.77
2018-02-13T06:06:52.496Z,97.86
2018-02-13T06:07:52.658Z,97.77
2018-02-13T06:08:52.208Z,98.05
2018-02-13T06:09:52.188Z,98.24
2018-02-13T06:10:52.159Z,97.86
2018-02-13T06:11:52.139Z,98.24
2018-02-13T06:12:52.150Z,97.86
2018-02-13T06:13:52.081Z,98.71
2018-02-13T06:14:52.350Z,98.43
2018-02-13T06:15:52.024Z,98.33
2018-02-13T06:16:51.994Z,98.52
2018-02-13T06:17:51.974Z,98.43
2018-02-13T06:18:51.989Z,98.24
2018-02-13T06:19:51.914Z,98.33
2018-02-13T06:20:51.922Z,98.52
2018-02-13T06:21:52.170Z,98.99
2018-02-13T06:22:51.834Z,98.52
2018-02-13T06:23:51.807Z,98.61
2018-02-13T06:24:52.059Z,97.77
2018-02-13T06:25:51.885Z,97.96
2018-02-13T06:26:51.840Z,97.96
2018-02-13T06:27:51.810Z,98.05
2018-02-13T06:28:51.979Z,98.24
2018-02-13T06:29:51.724Z,98.05
2018-02-13T06:30:51.698Z,98.61
2018-02-13T06:31:51.591Z,98.61
2018-02-13T06:32:51.561Z,98.43
2018-02-13T06:33:51.536Z,98.52
2018-02-13T06:34:51.621Z,98.52
2018-02-13T06:35:52.013Z,98.90
2018-02-13T06:36:51.622Z,98.43
2018-02-13T06:37:51.540Z,98.52
2018-02-13T06:38:51.509Z,98.61
2018-02-13T06:39:51.480Z,98.80
2018-02-13T06:40:51.488Z,99.18
2018-02-13T06:41:51.473Z,98.90
2018-02-13T06:42:51.754Z,98.52
2018-02-13T06:43:51.398Z,98.61
2018-02-13T06:44:51.368Z,98.61
2018-02-13T06:45:51.318Z,98.14
2018-02-13T06:46:51.305Z,98.43
2018-02-13T06:47:51.330Z,97.67
2018-02-13T06:48:51.619Z,98.05
2018-02-13T06:49:51.246Z,98.05
2018-02-13T06:50:51.976Z,97.86
2018-02-13T06:51:51.184Z,97.77
2018-02-13T06:52:51.056Z,97.86
2018-02-13T06:53:51.084Z,97.77
2018-02-13T06:54:51.389Z,97.86
2018-02-13T06:55:50.964Z,97.96
2018-02-13T06:56:51.016Z,97.86
2018-02-13T06:57:50.910Z,97.96
2018-02-13T06:58:50.952Z,97.58
2018-02-13T06:59:50.903Z,97.39
2018-02-13T07:00:51.240Z,97.39
2018-02-13T07:01:50.857Z,97.29
2018-02-13T07:02:50.835Z,97.20
2018-02-13T07:03:50.731Z,97.48
2018-02-13T07:04:50.708Z,96.73
2018-02-13T07:05:50.674Z,97.01
2018-02-13T07:06:50.695Z,96.63
2018-02-13T07:07:51.109Z,96.54
2018-02-13T07:08:50.728Z,96.35
2018-02-13T07:09:50.576Z,95.87
2018-02-13T07:10:50.610Z,95.50
2018-02-13T07:11:50.511Z,95.17
2018-02-13T07:12:50.532Z,95.36
2018-02-13T07:13:50.756Z,94.60
2018-02-13T07:15:50.413Z,94.74
2018-02-13T07:16:50.383Z,95.31
2018-02-13T07:17:50.381Z,94.93
2018-02-13T07:18:50.473Z,95.03
2018-02-13T07:19:50.605Z,94.74
2018-02-13T07:20:50.437Z,94.84
2018-02-13T07:21:50.265Z,95.17
2018-02-13T07:22:50.223Z,94.51
2018-02-13T07:23:50.194Z,94.32
2018-02-13T07:24:50.217Z,93.84
2018-02-13T07:25:50.458Z,93.47
2018-02-13T07:26:50.112Z,93.09
2018-02-13T07:27:50.178Z,92.61
2018-02-13T07:28:50.123Z,91.96
2018-02-13T07:29:50.047Z,91.96
2018-02-13T07:30:50.102Z,92.33
2018-02-13T07:31:50.321Z,91.48
2018-02-13T07:32:49.963Z,91.39
2018-02-13T07:35:49.936Z,89.83
2018-02-13T07:37:50.277Z,89.36
2018-02-13T07:38:49.804Z,89.36
2018-02-13T07:39:49.774Z,88.69
2018-02-13T07:40:49.741Z,88.69
2018-02-13T07:41:49.714Z,87.74
2018-02-13T07:42:49.723Z,87.08
2018-02-13T07:44:49.987Z,86.23
2018-02-13T07:45:49.683Z,86.33
2018-02-13T07:46:49.590Z,86.71
2018-02-13T07:47:49.570Z,85.99
2018-02-13T07:48:49.621Z,85.05
2018-02-13T07:49:49.510Z,82.68
2018-02-13T07:50:49.783Z,82.50
2018-02-13T07:51:49.533Z,82.15
2018-02-13T07:52:49.518Z,81.68
2018-02-13T07:53:49.405Z,80.83
2018-02-13T07:54:49.381Z,79.69
2018-02-13T07:56:49.689Z,79.98
2018-02-13T07:57:49.307Z,78.94
2018-02-13T07:58:49.294Z,78.31
2018-02-13T07:59:49.266Z,78.22
2018-02-13T08:00:49.343Z,77.27
2018-02-13T08:02:49.670Z,77.99
2018-02-13T08:03:49.209Z,78.65
2018-02-13T08:04:49.220Z,78.65
2018-02-13T08:05:49.122Z,78.31
2018-02-13T08:06:49.098Z,78.03
2018-02-13T08:07:49.075Z,77.65
2018-02-13T08:08:49.398Z,77.27
2018-02-13T08:09:49.128Z,76.32
2018-02-13T08:10:49.103Z,76.61
2018-02-13T08:11:50.279Z,76.61
2018-02-13T08:12:49.075Z,75.70
2018-02-13T08:13:49.047Z,74.85
2018-02-13T08:14:49.458Z,74.75
2018-02-13T08:15:48.888Z,74.28
2018-02-13T08:16:48.868Z,73.71
2018-02-13T08:17:48.835Z,73.61
2018-02-13T08:18:48.815Z,73.71
2018-02-13T08:19:48.792Z,73.05
2018-02-13T08:20:49.133Z,72.86
2018-02-13T08:21:48.754Z,72.57
2018-02-13T08:22:48.729Z,72.86
2018-02-13T08:23:48.775Z,72.14
2018-02-13T08:24:48.997Z,70.75
2018-02-13T08:25:48.741Z,69.20
2018-02-13T08:26:48.990Z,69.38
2018-02-13T08:27:48.693Z,69.67
2018-02-13T08:28:48.595Z,69.86
2018-02-13T08:29:48.573Z,69.38
2018-02-13T08:30:48.548Z,70.24
2018-02-13T08:31:48.533Z,69.52
2018-02-13T08:32:48.860Z,69.01
2018-02-13T08:33:48.494Z,69.26
2018-02-13T08:34:48.489Z,70.58
2018-02-13T08:35:48.473Z,71.00
2018-02-13T08:36:49.157Z,70.72
2018-02-13T08:37:48.693Z,69.29
2018-02-13T08:48:59.427Z,71.91
2018-02-13T08:49:58.157Z,72.14
2018-02-13T08:51:58.116Z,69.67
2018-02-13T08:53:58.385Z,69.33
2018-02-13T08:54:58.066Z,69.38
2018-02-13T08:55:58.117Z,69.01
2018-02-13T08:56:58.099Z,70.15
2018-02-13T08:57:58.004Z,69.57
2018-02-13T08:58:57.996Z,68.63
2018-02-13T08:59:58.257Z,68.63
2018-02-13T09:00:57.944Z,68.25
2018-02-13T09:01:57.919Z,69.23
2018-02-13T09:02:57.899Z,68.57
2018-02-13T09:03:57.884Z,67.11
2018-02-13T09:05:58.140Z,69.48
2018-02-13T09:07:59.053Z,68.82
2018-02-13T09:08:57.782Z,67.81
2018-02-13T09:09:57.762Z,66.67
2018-02-13T09:10:57.761Z,66.86
2018-02-13T09:11:58.028Z,66.42
2018-02-13T09:12:57.706Z,66.10
2018-02-13T09:14:57.666Z,67.24
2018-02-13T09:15:57.662Z,66.61
2018-02-13T09:16:57.627Z,65.66
2018-02-13T09:17:57.610Z,65.09
2018-02-13T09:18:57.921Z,65.95
2018-02-13T09:19:57.630Z,66.52
2018-02-13T09:22:57.519Z,65.22
2018-02-13T09:23:57.500Z,63.95
2018-02-13T09:24:57.480Z,63.42
2018-02-13T09:26:57.455Z,61.71
2018-02-13T09:27:57.424Z,62.15
2018-02-13T09:28:57.413Z,62.82
2018-02-13T09:29:57.396Z,63.70
2018-02-13T09:30:57.371Z,62.59
2018-02-13T09:31:57.654Z,61.52
2018-02-13T09:32:57.337Z,63.01
2018-02-13T09:33:57.317Z,63.51
2018-02-13T09:34:57.301Z,62.18
2018-02-13T09:35:57.285Z,62.08
2018-02-13T09:36:57.273Z,62.18
2018-02-13T09:37:57.252Z,61.17
2018-02-13T09:39:57.518Z,61.42
2018-02-13T09:40:57.203Z,61.36
2018-02-13T09:41:57.180Z,60.00
2018-02-13T09:42:57.164Z,60.60
2018-02-13T09:43:57.147Z,60.60
2018-02-13T09:44:57.128Z,60.25
2018-02-13T09:45:57.113Z,59.11
2018-02-13T09:46:57.398Z,59.20
2018-02-13T09:47:57.078Z,58.63
2018-02-13T09:48:57.067Z,59.84
2018-02-13T09:49:57.197Z,60.79
2018-02-13T09:50:57.028Z,60.85
2018-02-13T09:51:57.014Z,61.33
2018-02-13T09:52:56.998Z,61.36
2018-02-13T09:53:57.282Z,60.50
2018-02-13T09:54:57.073Z,61.04
2018-02-13T09:55:56.949Z,62.18
2018-02-13T09:56:56.935Z,61.07
2018-02-13T09:57:56.919Z,61.36
2018-02-13T09:58:56.915Z,60.95
2018-02-13T09:59:56.895Z,62.12
2018-02-13T10:00:56.955Z,61.17
2018-02-13T10:01:56.871Z,60.16
2018-02-13T10:02:56.853Z,60.41
2018-02-13T10:03:56.886Z,60.69
2018-02-13T10:04:56.814Z,60.82
2018-02-13T10:05:56.796Z,60.06
2018-02-13T10:06:57.080Z,59.17
2018-02-13T10:09:56.727Z,60.69
2018-02-13T10:11:56.763Z,59.68
2018-02-13T10:12:57.000Z,59.77
2018-02-13T10:13:56.684Z,58.76
2018-02-13T10:14:56.666Z,58.09
2018-02-13T10:15:56.651Z,57.97
2018-02-13T10:16:56.636Z,58.09
2018-02-13T10:18:56.911Z,59.74
2018-02-13T10:19:56.594Z,61.45
2018-02-13T10:20:56.636Z,60.13
2018-02-13T10:21:56.548Z,59.96
2018-02-13T10:22:56.533Z,58.37
2018-02-13T10:23:56.532Z,57.71
2018-02-13T10:24:56.808Z,56.67
2018-02-13T10:25:56.490Z,55.97
2018-02-13T10:26:56.579Z,56.57
2018-02-13T10:27:56.563Z,56.26
2018-02-13T10:28:56.727Z,57.09
2018-02-13T10:29:56.510Z,58.51
2018-02-13T10:30:56.915Z,58.73
2018-02-13T10:31:56.515Z,57.87
2018-02-13T10:32:56.387Z,58.32
2018-02-13T10:33:56.378Z,59.49
2018-02-13T10:34:56.360Z,58.76
2018-02-13T10:36:56.629Z,55.10
2018-02-13T10:37:56.316Z,53.39
2018-02-13T10:38:56.303Z,52.80
2018-02-13T10:39:56.288Z,54.29
2018-02-13T10:40:56.274Z,54.96
2018-02-13T10:41:56.286Z,55.08
2018-02-13T10:42:56.548Z,55.27
2018-02-13T10:43:56.237Z,54.41
2018-02-13T10:44:56.218Z,53.11
2018-02-13T10:45:56.206Z,52.34
2018-02-13T10:46:56.194Z,52.44
2018-02-13T10:47:56.178Z,52.61
2018-02-13T10:49:56.454Z,53.55
2018-02-13T10:50:56.139Z,53.36
2018-02-13T10:51:56.178Z,54.29
2018-02-13T10:52:56.133Z,55.43
2018-02-13T10:53:56.110Z,55.43
2018-02-13T10:54:56.095Z,54.50
2018-02-13T10:55:56.071Z,54.98
2018-02-13T10:56:56.362Z,54.22
2018-02-13T10:57:56.050Z,53.72
2018-02-13T10:59:56.018Z,55.62
2018-02-13T11:00:56.007Z,54.36
2018-02-13T11:01:56.053Z,54.93
2018-02-13T11:02:55.988Z,55.78
2018-02-13T11:03:56.274Z,55.15
2018-02-13T11:04:55.957Z,55.05
2018-02-13T11:05:55.942Z,55.36
2018-02-13T11:07:55.917Z,53.55
2018-02-13T11:08:55.902Z,53.63
2018-02-13T11:09:55.890Z,53.55
2018-02-13T11:10:56.330Z,52.89
2018-02-13T11:11:55.864Z,53.08
2018-02-13T11:12:55.851Z,52.98
2018-02-13T11:13:55.839Z,52.41
2018-02-13T11:14:55.820Z,51.49
2018-02-13T11:15:55.817Z,51.04
2018-02-13T11:16:55.800Z,51.49
2018-02-13T11:17:56.084Z,51.58
2018-02-13T11:18:55.770Z,51.58
2018-02-13T11:19:55.761Z,52.63
2018-02-13T11:20:55.748Z,51.49
2018-02-13T11:21:55.735Z,50.92
2018-02-13T11:22:55.723Z,50.92
2018-02-13T11:23:55.709Z,50.92
2018-02-13T11:24:55.998Z,51.27
2018-02-13T11:25:55.682Z,52.20
2018-02-13T11:26:55.688Z,51.97
2018-02-13T11:27:55.660Z,51.30
2018-02-13T11:28:55.651Z,50.44
2018-02-13T11:29:55.637Z,49.90
2018-02-13T11:30:55.626Z,49.13
2018-02-13T11:31:55.910Z,49.42
2018-02-13T11:32:55.596Z,49.32
2018-02-13T11:33:55.584Z,49.54
2018-02-13T11:34:55.621Z,48.47
2018-02-13T11:35:55.568Z,48.94
2018-02-13T11:36:55.550Z,49.68
2018-02-13T11:37:55.847Z,50.25
2018-02-13T11:38:55.548Z,51.23
2018-02-13T11:39:55.512Z,50.15
2018-02-13T11:40:55.503Z,50.13
2018-02-13T11:41:55.499Z,51.27
2018-02-13T11:42:55.478Z,52.10
2018-02-13T11:43:55.770Z,52.32
2018-02-13T11:45:55.641Z,50.30
2018-02-13T11:46:55.439Z,48.85
2018-02-13T11:47:55.421Z,49.13
2018-02-13T11:48:55.405Z,49.06
2018-02-13T11:49:55.695Z,47.73
2018-02-13T11:50:55.390Z,48.30
2018-02-13T11:51:55.370Z,46.94
2018-02-13T11:52:55.365Z,47.89
2018-02-13T11:53:55.361Z,48.27
2018-02-13T11:54:55.386Z,48.73
2018-02-13T11:55:55.328Z,49.01
2018-02-13T11:56:55.370Z,49.75
2018-02-13T11:57:55.299Z,50.29
2018-02-13T11:58:55.286Z,50.96
2018-02-13T11:59:55.294Z,51.37
2018-02-13T12:00:55.579Z,50.99
2018-02-13T12:02:55.250Z,51.46
2018-02-13T12:03:55.237Z,51.20
2018-02-13T12:04:55.273Z,51.01
2018-02-13T12:06:55.198Z,49.68
2018-02-13T12:07:55.197Z,49.01
2018-02-13T12:08:55.175Z,49.32
2018-02-13T12:09:55.227Z,48.06
2018-02-13T12:10:55.290Z,48.75
2018-02-13T12:11:55.447Z,49.01
2018-02-13T12:12:55.132Z,48.75
2018-02-13T12:13:55.120Z,48.75
2018-02-13T12:14:55.115Z,48.47
2018-02-13T12:15:55.152Z,48.63
2018-02-13T12:16:55.090Z,48.92
2018-02-13T12:17:56.992Z,49.80
2018-02-13T12:18:55.060Z,48.54
2018-02-13T12:20:55.038Z,48.56
2018-02-13T12:21:55.023Z,47.61
2018-02-13T12:22:55.063Z,48.11
2018-02-13T12:23:55.310Z,48.21
2018-02-13T12:24:54.989Z,46.23
2018-02-13T12:25:54.978Z,45.65
2018-02-13T12:26:54.971Z,46.58
2018-02-13T12:28:54.947Z,46.11
2018-02-13T12:30:55.238Z,46.66
2018-02-13T12:31:54.918Z,45.75
2018-02-13T12:32:54.908Z,45.10
2018-02-13T12:33:54.900Z,43.75
2018-02-13T12:34:54.892Z,43.80
2018-02-13T12:35:54.870Z,46.37
2018-02-13T12:36:54.864Z,46.97
2018-02-13T12:37:55.152Z,46.01
2018-02-13T12:38:54.836Z,45.99
2018-02-13T12:39:54.829Z,46.66
2018-02-13T12:40:54.872Z,45.78
2018-02-13T12:41:54.894Z,46.66
2018-02-13T12:42:54.830Z,46.63
2018-02-13T12:45:55.346Z,45.54
2018-02-13T12:46:54.767Z,44.23
2018-02-13T12:47:54.748Z,44.11
2018-02-13T12:48:54.746Z,44.30
2018-02-13T12:49:54.724Z,44.27
2018-02-13T12:50:54.723Z,44.45
2018-02-13T12:51:55.010Z,45.14
2018-02-13T12:52:54.708Z,45.32
2018-02-13T12:53:54.686Z,44.16
2018-02-13T12:54:54.676Z,44.35
2018-02-13T12:55:54.671Z,45.11
2018-02-13T12:56:54.862Z,45.40
2018-02-13T12:57:54.651Z,44.49
2018-02-13T12:58:54.628Z,43.51
2018-02-13T12:59:54.626Z,44.06
2018-02-13T13:02:54.635Z,45.21
2018-02-13T13:03:54.578Z,44.35
2018-02-13T13:04:54.866Z,43.99
2018-02-13T13:05:54.560Z,43.21
2018-02-13T13:06:54.544Z,42.94
2018-02-13T13:07:54.589Z,43.13
2018-02-13T13:08:54.526Z,43.13
2018-02-13T13:09:54.518Z,43.97
2018-02-13T13:10:54.799Z,43.99
2018-02-13T13:11:54.490Z,42.85
2018-02-13T13:12:54.489Z,44.09
2018-02-13T13:13:54.469Z,44.37
2018-02-13T13:14:54.464Z,43.90
2018-02-13T13:15:54.446Z,42.49
2018-02-13T13:16:54.739Z,42.01
2018-02-13T13:17:54.595Z,43.23
2018-02-13T13:18:54.594Z,42.66
2018-02-13T13:19:54.412Z,42.76
2018-02-13T13:20:54.397Z,41.61
2018-02-13T13:21:54.384Z,41.30
2018-02-13T13:22:54.735Z,41.78
2018-02-13T13:23:54.374Z,42.07
2018-02-13T13:24:54.357Z,42.73
2018-02-13T13:25:54.341Z,42.83
2018-02-13T13:26:54.329Z,42.64
2018-02-13T13:28:54.613Z,41.69
2018-02-13T13:29:54.299Z,41.59
2018-02-13T13:30:55.496Z,41.76
2018-02-13T13:32:54.282Z,43.40
2018-02-13T13:33:54.256Z,42.92
2018-02-13T13:34:54.558Z,43.02
2018-02-13T13:35:54.286Z,42.73
2018-02-13T13:36:54.229Z,42.18
2018-02-13T13:38:54.198Z,43.28
2018-02-13T13:39:54.186Z,44.31
2018-02-13T13:40:54.481Z,45.00
2018-02-13T13:41:54.265Z,45.11
2018-02-13T13:42:54.160Z,43.32
2018-02-13T13:43:54.145Z,41.52
2018-02-13T13:44:54.135Z,41.52
2018-02-13T13:45:54.127Z,41.13
2018-02-13T13:46:54.410Z,41.61